Time,TemperatureF,DewpointF,PressureIn,WindDirection,WindDirectionDegrees,WindSpeedMPH,WindSpeedGustMPH,Humidity,HourlyPrecipIn,Conditions,Clouds,dailyrainin,SoftwareType,DateUTC
2013-08-22 00:00:00,67.9,9.4,29.44,WSW,248,4.7,4.7,1,0.00,,,0.00,WUHU216HW,2013-08-22 04:00:00,
2013-08-22 00:01:00,67.9,9.4,29.44,WSW,248,4.7,4.7,1,0.00,,,0.00,WUHU216HW,2013-08-22 04:01:00,
2013-08-22 00:06:00,67.9,9.4,29.44,WSW,248,4.7,4.7,1,0.00,,,0.00,WUHU216HW,2013-08-22 04:06:00,
2013-08-22 00:30:00,67.3,9.0,29.44,West,270,3.4,3.4,1,0.00,,,0.00,WUHU216HW,2013-08-22 04:30:00,
2013-08-22 00:35:00,67.3,9.0,29.44,West,270,3.4,3.4,1,0.00,,,0.00,WUHU216HW,2013-08-22 04:35:00,
2013-08-22 00:59:00,67.0,8.6,29.45,West,270,8.3,8.3,1,0.00,,,0.00,WUHU216HW,2013-08-22 04:59:00,
2013-08-22 01:00:00,67.0,8.6,29.45,West,270,8.3,8.3,1,0.00,,,0.00,WUHU216HW,2013-08-22 05:00:00,
2013-08-22 01:05:00,67.0,8.6,29.45,West,270,8.3,8.3,1,0.00,,,0.00,WUHU216HW,2013-08-22 05:05:00,
2013-08-22 01:29:00,67.1,8.8,29.46,WSW,248,5.6,5.6,1,0.00,,,0.00,WUHU216HW,2013-08-22 05:29:00,
2013-08-22 01:30:00,67.1,8.8,29.46,WSW,248,5.6,5.6,1,0.00,,,0.00,WUHU216HW,2013-08-22 05:30:00,
2013-08-22 01:35:00,67.1,8.8,29.46,WSW,248,5.6,5.6,1,0.00,,,0.00,WUHU216HW,2013-08-22 05:35:00,
2013-08-22 01:59:00,67.7,9.3,29.46,WNW,293,0.7,0.7,1,0.00,,,0.00,WUHU216HW,2013-08-22 05:59:00,
2013-08-22 02:00:00,67.7,9.3,29.46,WNW,293,0.7,0.7,1,0.00,,,0.00,WUHU216HW,2013-08-22 06:00:00,
2013-08-22 02:05:00,67.7,9.3,29.46,WNW,293,0.7,0.7,1,0.00,,,0.00,WUHU216HW,2013-08-22 06:05:00,
2013-08-22 02:29:00,67.7,9.3,29.45,WSW,248,6.3,6.3,1,0.01,,,0.00,WUHU216HW,2013-08-22 06:29:00,
2013-08-22 02:30:00,67.7,9.3,29.45,WSW,248,6.3,6.3,1,0.01,,,0.00,WUHU216HW,2013-08-22 06:30:00,
2013-08-22 02:35:00,67.7,9.3,29.45,WSW,248,6.3,6.3,1,0.01,,,0.00,WUHU216HW,2013-08-22 06:35:00,
2013-08-22 02:59:00,67.1,8.8,29.45,WSW,248,4.7,4.7,1,0.01,,,0.00,WUHU216HW,2013-08-22 06:59:00,
2013-08-22 03:00:00,67.1,8.8,29.45,WSW,248,4.7,4.7,1,0.01,,,0.00,WUHU216HW,2013-08-22 07:00:00,
2013-08-22 03:05:00,67.1,8.8,29.45,WSW,248,4.7,4.7,1,0.01,,,0.00,WUHU216HW,2013-08-22 07:05:00,
2013-08-22 03:29:00,66.8,8.6,29.44,WSW,248,4.0,4.0,1,0.01,,,0.00,WUHU216HW,2013-08-22 07:29:00,
2013-08-22 03:30:00,66.8,8.6,29.44,WSW,248,4.0,4.0,1,0.01,,,0.00,WUHU216HW,2013-08-22 07:30:00,
2013-08-22 03:35:00,66.8,8.6,29.44,WSW,248,4.0,4.0,1,0.01,,,0.00,WUHU216HW,2013-08-22 07:35:00,
2013-08-22 03:59:00,67.0,8.6,29.43,SSW,203,1.1,1.1,1,0.01,,,0.02,WUHU216HW,2013-08-22 07:59:00,
2013-08-22 04:00:00,67.0,8.6,29.43,SSW,203,1.1,1.1,1,0.01,,,0.02,WUHU216HW,2013-08-22 08:00:00,
2013-08-22 04:05:00,67.0,8.6,29.43,SSW,203,1.1,1.1,1,0.01,,,0.02,WUHU216HW,2013-08-22 08:05:00,
2013-08-22 04:29:00,66.8,8.6,29.41,WSW,248,0.9,0.9,1,0.00,,,0.02,WUHU216HW,2013-08-22 08:29:00,
2013-08-22 04:30:00,66.8,8.6,29.41,WSW,248,0.9,0.9,1,0.00,,,0.02,WUHU216HW,2013-08-22 08:30:00,
2013-08-22 04:35:00,66.8,8.6,29.41,WSW,248,0.9,0.9,1,0.00,,,0.02,WUHU216HW,2013-08-22 08:35:00,
2013-08-22 05:00:00,66.6,8.4,29.41,SSW,203,2.0,2.0,1,0.00,,,0.02,WUHU216HW,2013-08-22 09:00:00,
2013-08-22 05:05:00,66.6,8.4,29.41,SSW,203,2.0,2.0,1,0.00,,,0.02,WUHU216HW,2013-08-22 09:05:00,
2013-08-22 05:30:00,66.2,8.1,29.41,WSW,248,3.4,3.4,1,0.00,,,0.02,WUHU216HW,2013-08-22 09:30:00,
2013-08-22 05:35:00,66.2,8.1,29.41,WSW,248,3.4,3.4,1,0.00,,,0.02,WUHU216HW,2013-08-22 09:35:00,
2013-08-22 06:00:00,65.2,7.2,29.43,WNW,293,4.7,4.7,1,0.00,,,0.02,WUHU216HW,2013-08-22 10:00:00,
2013-08-22 06:05:00,65.2,7.2,29.43,WNW,293,4.7,4.7,1,0.00,,,0.02,WUHU216HW,2013-08-22 10:05:00,
2013-08-22 06:30:00,66.1,7.9,29.44,WSW,248,3.4,3.4,1,0.00,,,0.02,WUHU216HW,2013-08-22 10:30:00,
2013-08-22 06:35:00,66.1,7.9,29.44,WSW,248,3.4,3.4,1,0.00,,,0.02,WUHU216HW,2013-08-22 10:35:00,
2013-08-22 07:00:00,66.2,8.1,29.44,WNW,293,0.4,0.4,1,0.00,,,0.02,WUHU216HW,2013-08-22 11:00:00,
2013-08-22 07:30:00,66.4,8.3,29.44,ENE,68,1.1,1.1,1,0.00,,,0.02,WUHU216HW,2013-08-22 11:30:00,
2013-08-22 08:00:00,67.1,8.8,29.44,WSW,248,0.0,0.0,1,0.00,,,0.02,WUHU216HW,2013-08-22 12:00:00,
2013-08-22 08:30:00,68.4,9.8,29.44,West,270,1.3,1.3,1,0.00,,,0.02,WUHU216HW,2013-08-22 12:30:00,
2013-08-22 08:35:00,68.4,9.8,29.44,West,270,1.3,1.3,1,0.00,,,0.02,WUHU216HW,2013-08-22 12:35:00,
2013-08-22 09:00:00,70.4,11.3,29.44,SSW,203,4.7,4.7,1,0.00,,,0.02,WUHU216HW,2013-08-22 13:00:00,
2013-08-22 09:05:00,70.4,11.3,29.44,SSW,203,4.7,4.7,1,0.00,,,0.02,WUHU216HW,2013-08-22 13:05:00,
2013-08-22 09:30:00,74.0,14.0,29.44,SSW,203,4.0,4.0,1,0.00,,,0.02,WUHU216HW,2013-08-22 13:30:00,
2013-08-22 09:35:00,74.0,14.0,29.44,SSW,203,4.0,4.0,1,0.00,,,0.02,WUHU216HW,2013-08-22 13:35:00,
2013-08-22 10:00:00,75.2,14.9,29.44,SW,225,2.2,2.2,1,0.00,,,0.02,WUHU216HW,2013-08-22 14:00:00,
2013-08-22 10:05:00,75.2,14.9,29.44,SW,225,2.2,2.2,1,0.00,,,0.02,WUHU216HW,2013-08-22 14:05:00,
2013-08-22 10:30:00,76.0,18.8,29.45,West,270,4.7,4.7,12,0.00,,,0.02,WUHU216HW,2013-08-22 14:30:00,
2013-08-22 10:35:00,76.0,18.8,29.45,West,270,4.7,4.7,12,0.00,,,0.02,WUHU216HW,2013-08-22 14:35:00,
2013-08-22 11:00:00,79.2,56.0,29.44,West,270,4.9,4.9,45,0.00,,,0.02,WUHU216HW,2013-08-22 15:00:00,
2013-08-22 11:05:00,79.2,56.0,29.44,West,270,4.9,4.9,45,0.00,,,0.02,WUHU216HW,2013-08-22 15:05:00,
2013-08-22 11:30:00,79.6,54.5,29.44,West,270,6.5,6.5,42,0.00,,,0.02,WUHU216HW,2013-08-22 15:30:00,
2013-08-22 11:35:00,79.6,54.5,29.44,West,270,6.5,6.5,42,0.00,,,0.02,WUHU216HW,2013-08-22 15:35:00,
2013-08-22 12:00:00,80.1,59.9,29.44,WNW,293,3.1,3.1,50,0.00,,,0.02,WUHU216HW,2013-08-22 16:00:00,
2013-08-22 12:05:00,80.1,59.9,29.44,WNW,293,3.1,3.1,50,0.00,,,0.02,WUHU216HW,2013-08-22 16:05:00,
2013-08-22 12:30:00,79.7,63.6,29.43,West,270,8.7,8.7,58,0.00,,,0.02,WUHU216HW,2013-08-22 16:30:00,
2013-08-22 12:35:00,79.7,63.6,29.43,West,270,8.7,8.7,58,0.00,,,0.02,WUHU216HW,2013-08-22 16:35:00,
2013-08-22 13:00:00,80.5,63.8,29.41,WNW,293,2.2,2.2,57,0.00,,,0.02,WUHU216HW,2013-08-22 17:00:00,
2013-08-22 13:05:00,80.5,63.8,29.41,WNW,293,2.2,2.2,57,0.00,,,0.02,WUHU216HW,2013-08-22 17:05:00,
2013-08-22 13:30:00,80.6,62.9,29.41,NNW,338,3.8,3.8,55,0.00,,,0.02,WUHU216HW,2013-08-22 17:30:00,
2013-08-22 13:35:00,80.6,62.9,29.41,NNW,338,3.8,3.8,55,0.00,,,0.02,WUHU216HW,2013-08-22 17:35:00,
2013-08-22 14:00:00,82.1,65.3,29.40,West,270,6.0,6.0,57,0.00,,,0.02,WUHU216HW,2013-08-22 18:00:00,
2013-08-22 14:05:00,82.1,65.3,29.40,West,270,6.0,6.0,57,0.00,,,0.02,WUHU216HW,2013-08-22 18:05:00,
2013-08-22 14:30:00,81.9,65.1,29.39,WNW,293,3.4,3.4,57,0.00,,,0.02,WUHU216HW,2013-08-22 18:30:00,
2013-08-22 14:35:00,81.9,65.1,29.39,WNW,293,3.4,3.4,57,0.00,,,0.02,WUHU216HW,2013-08-22 18:35:00,
2013-08-22 15:00:00,83.2,66.3,29.38,NNW,338,2.9,2.9,57,0.00,,,0.02,WUHU216HW,2013-08-22 19:00:00,
2013-08-22 15:05:00,83.2,66.3,29.38,NNW,338,2.9,2.9,57,0.00,,,0.02,WUHU216HW,2013-08-22 19:05:00,
2013-08-22 15:30:00,84.1,67.7,29.36,WSW,248,3.4,3.4,58,0.00,,,0.02,WUHU216HW,2013-08-22 19:30:00,
2013-08-22 15:35:00,84.1,67.7,29.36,WSW,248,3.4,3.4,58,0.00,,,0.02,WUHU216HW,2013-08-22 19:35:00,
2013-08-22 16:00:00,84.8,67.9,29.35,West,270,4.9,4.9,57,0.00,,,0.02,WUHU216HW,2013-08-22 20:00:00,
2013-08-22 16:05:00,84.8,67.9,29.35,West,270,4.9,4.9,57,0.00,,,0.02,WUHU216HW,2013-08-22 20:05:00,
2013-08-22 16:30:00,85.7,67.6,29.33,SW,225,3.1,3.1,55,0.00,,,0.02,WUHU216HW,2013-08-22 20:30:00,
2013-08-22 16:35:00,85.7,67.6,29.33,SW,225,3.1,3.1,55,0.00,,,0.02,WUHU216HW,2013-08-22 20:35:00,
2013-08-22 17:00:00,85.7,67.2,29.33,WNW,293,7.2,7.2,54,0.00,,,0.02,WUHU216HW,2013-08-22 21:00:00,
2013-08-22 17:05:00,85.7,67.2,29.33,WNW,293,7.2,7.2,54,0.00,,,0.02,WUHU216HW,2013-08-22 21:05:00,
2013-08-22 17:30:00,85.9,67.8,29.33,SW,225,3.4,3.4,55,0.00,,,0.02,WUHU216HW,2013-08-22 21:30:00,
2013-08-22 17:35:00,85.9,67.8,29.33,SW,225,3.4,3.4,55,0.00,,,0.02,WUHU216HW,2013-08-22 21:35:00,
2013-08-22 18:00:00,85.5,68.0,29.33,West,270,7.6,7.6,56,0.00,,,0.02,WUHU216HW,2013-08-22 22:00:00,
2013-08-22 18:05:00,85.5,68.0,29.33,West,270,7.6,7.6,56,0.00,,,0.02,WUHU216HW,2013-08-22 22:05:00,
2013-08-22 18:30:00,83.9,67.5,29.33,West,270,2.5,2.5,58,0.00,,,0.02,WUHU216HW,2013-08-22 22:30:00,
2013-08-22 18:35:00,83.9,67.5,29.33,West,270,2.5,2.5,58,0.00,,,0.02,WUHU216HW,2013-08-22 22:35:00,
2013-08-22 19:00:00,82.6,66.8,29.32,SSE,158,4.0,4.0,59,0.00,,,0.02,WUHU216HW,2013-08-22 23:00:00,
2013-08-22 19:05:00,82.6,66.8,29.32,SSE,158,4.0,4.0,59,0.00,,,0.02,WUHU216HW,2013-08-22 23:05:00,
2013-08-22 19:30:00,80.6,64.4,29.32,WSW,248,4.9,4.9,58,0.00,,,0.02,WUHU216HW,2013-08-22 23:30:00,
2013-08-22 19:35:00,80.6,64.4,29.32,WSW,248,4.9,4.9,58,0.00,,,0.02,WUHU216HW,2013-08-22 23:35:00,
2013-08-22 20:00:00,79.2,62.6,29.34,WSW,248,3.8,3.8,57,0.00,,,0.02,WUHU216HW,2013-08-23 00:00:00,
2013-08-22 20:05:00,79.2,62.6,29.34,WSW,248,3.8,3.8,57,0.00,,,0.02,WUHU216HW,2013-08-23 00:05:00,
2013-08-22 20:30:00,78.5,61.5,29.34,West,270,1.1,1.1,56,0.00,,,0.02,WUHU216HW,2013-08-23 00:30:00,
2013-08-22 20:35:00,78.5,61.5,29.34,West,270,1.1,1.1,56,0.00,,,0.02,WUHU216HW,2013-08-23 00:35:00,
2013-08-22 21:00:00,77.0,57.6,29.34,SW,225,0.7,0.7,51,0.00,,,0.02,WUHU216HW,2013-08-23 01:00:00,
2013-08-22 21:05:00,77.0,57.6,29.34,SW,225,0.7,0.7,51,0.00,,,0.02,WUHU216HW,2013-08-23 01:05:00,
2013-08-22 21:30:00,75.4,47.3,29.36,SW,225,0.7,0.7,37,0.00,,,0.02,WUHU216HW,2013-08-23 01:30:00,
2013-08-22 21:35:00,75.4,47.3,29.36,SW,225,0.7,0.7,37,0.00,,,0.02,WUHU216HW,2013-08-23 01:35:00,
2013-08-22 22:00:00,74.3,33.9,29.36,West,270,3.6,3.6,23,0.00,,,0.02,WUHU216HW,2013-08-23 02:00:00,
2013-08-22 22:05:00,74.3,33.9,29.36,West,270,3.6,3.6,23,0.00,,,0.02,WUHU216HW,2013-08-23 02:05:00,
2013-08-22 22:30:00,73.8,32.4,29.36,South,180,2.7,2.7,22,0.00,,,0.02,WUHU216HW,2013-08-23 02:30:00,
2013-08-22 22:35:00,73.8,32.4,29.36,South,180,2.7,2.7,22,0.00,,,0.02,WUHU216HW,2013-08-23 02:35:00,
2013-08-22 23:00:00,72.9,16.5,29.35,WSW,248,1.8,1.8,12,0.00,,,0.02,WUHU216HW,2013-08-23 03:00:00,
2013-08-22 23:05:00,72.9,16.5,29.35,WSW,248,1.8,1.8,12,0.00,,,0.02,WUHU216HW,2013-08-23 03:05:00,
2013-08-22 23:30:00,72.5,13.0,29.36,SSW,203,1.8,1.8,3,0.00,,,0.02,WUHU216HW,2013-08-23 03:30:00,
2013-08-22 23:35:00,72.5,13.0,29.36,SSW,203,1.8,1.8,3,0.00,,,0.02,WUHU216HW,2013-08-23 03:35:00,